sensor_id;sensor_type;location;lat;lon;timestamp;P1;durP1;ratioP1;P2;durP2;ratioP2
53293;SDS011;39181;53.440;5.644;2023-07-16T00:02:02;19.15;;;5.25;;
53293;SDS011;39181;53.440;5.644;2023-07-16T00:04:27;20.40;;;5.72;;
53293;SDS011;39181;53.440;5.644;2023-07-16T00:06:53;20.60;;;5.97;;
53293;SDS011;39181;53.440;5.644;2023-07-16T00:09:18;20.70;;;6.13;;
53293;SDS011;39181;53.440;5.644;2023-07-16T00:11:44;19.60;;;6.25;;
53293;SDS011;39181;53.440;5.644;2023-07-16T00:14:10;19.67;;;6.07;;
53293;SDS011;39181;53.440;5.644;2023-07-16T00:16:37;20.90;;;6.20;;
53293;SDS011;39181;53.440;5.644;2023-07-16T00:19:02;22.23;;;6.00;;
53293;SDS011;39181;53.440;5.644;2023-07-16T00:21:28;21.70;;;6.25;;
53293;SDS011;39181;53.440;5.644;2023-07-16T00:23:53;22.63;;;5.75;;
53293;SDS011;39181;53.440;5.644;2023-07-16T00:26:20;24.98;;;6.22;;
53293;SDS011;39181;53.440;5.644;2023-07-16T00:28:46;22.67;;;6.68;;
53293;SDS011;39181;53.440;5.644;2023-07-16T00:31:12;27.52;;;6.68;;
53293;SDS011;39181;53.440;5.644;2023-07-16T00:33:37;20.38;;;6.38;;
53293;SDS011;39181;53.440;5.644;2023-07-16T00:36:03;23.33;;;5.63;;
53293;SDS011;39181;53.440;5.644;2023-07-16T00:38:29;20.38;;;5.97;;
53293;SDS011;39181;53.440;5.644;2023-07-16T00:40:55;22.35;;;6.13;;
53293;SDS011;39181;53.440;5.644;2023-07-16T00:43:21;24.33;;;5.90;;
53293;SDS011;39181;53.440;5.644;2023-07-16T00:45:47;30.55;;;6.55;;
53293;SDS011;39181;53.440;5.644;2023-07-16T00:48:13;20.30;;;5.88;;
53293;SDS011;39181;53.440;5.644;2023-07-16T00:50:40;21.73;;;5.70;;
53293;SDS011;39181;53.440;5.644;2023-07-16T00:53:06;16.92;;;5.68;;
53293;SDS011;39181;53.440;5.644;2023-07-16T00:55:33;19.70;;;5.93;;
53293;SDS011;39181;53.440;5.644;2023-07-16T00:58:05;23.00;;;5.97;;
53293;SDS011;39181;53.440;5.644;2023-07-16T01:00:32;19.60;;;5.53;;
53293;SDS011;39181;53.440;5.644;2023-07-16T01:03:02;17.05;;;5.80;;
53293;SDS011;39181;53.440;5.644;2023-07-16T01:05:40;25.60;;;5.75;;
53293;SDS011;39181;53.440;5.644;2023-07-16T01:08:14;17.23;;;5.47;;
53293;SDS011;39181;53.440;5.644;2023-07-16T01:10:45;21.70;;;5.57;;
53293;SDS011;39181;53.440;5.644;2023-07-16T01:13:11;21.40;;;5.45;;
53293;SDS011;39181;53.440;5.644;2023-07-16T01:15:36;21.55;;;5.93;;
53293;SDS011;39181;53.440;5.644;2023-07-16T01:18:03;18.02;;;5.82;;
53293;SDS011;39181;53.440;5.644;2023-07-16T01:20:29;19.92;;;6.00;;
53293;SDS011;39181;53.440;5.644;2023-07-16T01:25:36;21.58;;;6.45;;
53293;SDS011;39181;53.440;5.644;2023-07-16T01:30:58;22.30;;;5.57;;
53293;SDS011;39181;53.440;5.644;2023-07-16T01:33:24;22.50;;;6.65;;
53293;SDS011;39181;53.440;5.644;2023-07-16T01:35:51;19.73;;;5.20;;
53293;SDS011;39181;53.440;5.644;2023-07-16T01:38:18;15.90;;;6.03;;
53293;SDS011;39181;53.440;5.644;2023-07-16T01:40:47;18.23;;;5.93;;
53293;SDS011;39181;53.440;5.644;2023-07-16T01:43:12;25.48;;;6.35;;
53293;SDS011;39181;53.440;5.644;2023-07-16T01:45:38;24.10;;;6.85;;
53293;SDS011;39181;53.440;5.644;2023-07-16T01:48:24;14.65;;;5.70;;
53293;SDS011;39181;53.440;5.644;2023-07-16T01:50:58;18.50;;;5.88;;
53293;SDS011;39181;53.440;5.644;2023-07-16T01:53:23;28.50;;;6.90;;
53293;SDS011;39181;53.440;5.644;2023-07-16T01:55:49;25.48;;;6.38;;
53293;SDS011;39181;53.440;5.644;2023-07-16T01:58:14;21.30;;;6.63;;
53293;SDS011;39181;53.440;5.644;2023-07-16T02:00:40;17.95;;;5.97;;
53293;SDS011;39181;53.440;5.644;2023-07-16T02:03:06;22.75;;;6.18;;
53293;SDS011;39181;53.440;5.644;2023-07-16T02:05:31;21.63;;;6.95;;
53293;SDS011;39181;53.440;5.644;2023-07-16T02:07:57;24.70;;;6.72;;
53293;SDS011;39181;53.440;5.644;2023-07-16T02:10:23;29.02;;;6.88;;
53293;SDS011;39181;53.440;5.644;2023-07-16T02:12:48;21.85;;;6.43;;
53293;SDS011;39181;53.440;5.644;2023-07-16T02:15:14;19.25;;;5.85;;
53293;SDS011;39181;53.440;5.644;2023-07-16T02:17:40;20.05;;;5.93;;
53293;SDS011;39181;53.440;5.644;2023-07-16T02:20:06;20.33;;;6.47;;
53293;SDS011;39181;53.440;5.644;2023-07-16T02:22:33;20.05;;;5.93;;
53293;SDS011;39181;53.440;5.644;2023-07-16T02:25:00;20.30;;;6.10;;
53293;SDS011;39181;53.440;5.644;2023-07-16T02:27:26;22.92;;;6.05;;
53293;SDS011;39181;53.440;5.644;2023-07-16T02:29:52;19.95;;;6.68;;
53293;SDS011;39181;53.440;5.644;2023-07-16T02:32:18;21.23;;;5.85;;
53293;SDS011;39181;53.440;5.644;2023-07-16T02:34:43;23.90;;;6.30;;
53293;SDS011;39181;53.440;5.644;2023-07-16T02:37:09;19.10;;;5.55;;
53293;SDS011;39181;53.440;5.644;2023-07-16T02:39:34;17.65;;;5.22;;
53293;SDS011;39181;53.440;5.644;2023-07-16T02:42:00;24.00;;;4.70;;
53293;SDS011;39181;53.440;5.644;2023-07-16T02:44:26;21.63;;;4.45;;
53293;SDS011;39181;53.440;5.644;2023-07-16T02:46:51;23.27;;;4.55;;
53293;SDS011;39181;53.440;5.644;2023-07-16T02:49:17;22.35;;;4.68;;
53293;SDS011;39181;53.440;5.644;2023-07-16T02:51:42;28.05;;;5.32;;
53293;SDS011;39181;53.440;5.644;2023-07-16T02:54:08;18.38;;;4.72;;
53293;SDS011;39181;53.440;5.644;2023-07-16T02:56:34;18.02;;;4.13;;
53293;SDS011;39181;53.440;5.644;2023-07-16T02:58:59;26.77;;;5.43;;
53293;SDS011;39181;53.440;5.644;2023-07-16T03:01:25;20.80;;;4.40;;
53293;SDS011;39181;53.440;5.644;2023-07-16T03:03:50;19.08;;;4.82;;
53293;SDS011;39181;53.440;5.644;2023-07-16T03:06:16;20.67;;;5.68;;
53293;SDS011;39181;53.440;5.644;2023-07-16T03:08:42;26.80;;;5.03;;
53293;SDS011;39181;53.440;5.644;2023-07-16T03:11:07;21.95;;;5.32;;
53293;SDS011;39181;53.440;5.644;2023-07-16T03:13:33;26.40;;;5.70;;
53293;SDS011;39181;53.440;5.644;2023-07-16T03:15:58;27.13;;;6.18;;
53293;SDS011;39181;53.440;5.644;2023-07-16T03:18:27;22.08;;;5.75;;
53293;SDS011;39181;53.440;5.644;2023-07-16T03:20:54;29.38;;;6.45;;
53293;SDS011;39181;53.440;5.644;2023-07-16T03:23:19;24.17;;;5.72;;
53293;SDS011;39181;53.440;5.644;2023-07-16T03:25:45;29.67;;;6.13;;
53293;SDS011;39181;53.440;5.644;2023-07-16T03:28:10;18.08;;;5.40;;
53293;SDS011;39181;53.440;5.644;2023-07-16T03:30:36;36.97;;;7.20;;
53293;SDS011;39181;53.440;5.644;2023-07-16T03:33:02;28.23;;;6.53;;
53293;SDS011;39181;53.440;5.644;2023-07-16T03:35:28;20.00;;;6.15;;
53293;SDS011;39181;53.440;5.644;2023-07-16T03:37:54;30.60;;;6.72;;
53293;SDS011;39181;53.440;5.644;2023-07-16T03:40:21;25.67;;;5.60;;
53293;SDS011;39181;53.440;5.644;2023-07-16T03:42:51;35.50;;;6.57;;
53293;SDS011;39181;53.440;5.644;2023-07-16T03:45:17;23.65;;;6.40;;
53293;SDS011;39181;53.440;5.644;2023-07-16T03:47:42;23.65;;;6.30;;
53293;SDS011;39181;53.440;5.644;2023-07-16T03:50:08;24.48;;;5.72;;
53293;SDS011;39181;53.440;5.644;2023-07-16T03:52:34;31.75;;;6.55;;
53293;SDS011;39181;53.440;5.644;2023-07-16T03:54:59;37.92;;;7.85;;
53293;SDS011;39181;53.440;5.644;2023-07-16T03:57:27;38.00;;;6.40;;
53293;SDS011;39181;53.440;5.644;2023-07-16T03:59:53;32.90;;;5.70;;
53293;SDS011;39181;53.440;5.644;2023-07-16T04:02:19;23.77;;;5.93;;
53293;SDS011;39181;53.440;5.644;2023-07-16T04:04:44;35.00;;;6.20;;
53293;SDS011;39181;53.440;5.644;2023-07-16T04:07:10;24.33;;;5.70;;
53293;SDS011;39181;53.440;5.644;2023-07-16T04:09:38;25.42;;;5.85;;
53293;SDS011;39181;53.440;5.644;2023-07-16T04:12:04;32.85;;;6.95;;
53293;SDS011;39181;53.440;5.644;2023-07-16T04:14:31;36.20;;;7.82;;
53293;SDS011;39181;53.440;5.644;2023-07-16T04:16:57;22.02;;;6.10;;
53293;SDS011;39181;53.440;5.644;2023-07-16T04:19:22;35.35;;;6.45;;
53293;SDS011;39181;53.440;5.644;2023-07-16T04:21:48;33.80;;;6.65;;
53293;SDS011;39181;53.440;5.644;2023-07-16T04:24:13;30.80;;;6.78;;
53293;SDS011;39181;53.440;5.644;2023-07-16T04:26:39;29.95;;;6.35;;
53293;SDS011;39181;53.440;5.644;2023-07-16T04:29:04;32.90;;;6.80;;
53293;SDS011;39181;53.440;5.644;2023-07-16T04:31:30;32.00;;;7.05;;
53293;SDS011;39181;53.440;5.644;2023-07-16T04:33:55;22.48;;;6.30;;
53293;SDS011;39181;53.440;5.644;2023-07-16T04:36:21;23.23;;;4.55;;
53293;SDS011;39181;53.440;5.644;2023-07-16T04:38:47;26.17;;;4.63;;
53293;SDS011;39181;53.440;5.644;2023-07-16T04:41:12;22.77;;;5.22;;
53293;SDS011;39181;53.440;5.644;2023-07-16T04:43:38;25.27;;;5.13;;
53293;SDS011;39181;53.440;5.644;2023-07-16T04:46:04;30.77;;;5.25;;
53293;SDS011;39181;53.440;5.644;2023-07-16T04:48:30;28.52;;;5.45;;
53293;SDS011;39181;53.440;5.644;2023-07-16T04:50:56;21.02;;;5.10;;
53293;SDS011;39181;53.440;5.644;2023-07-16T04:53:24;28.90;;;5.68;;
53293;SDS011;39181;53.440;5.644;2023-07-16T04:55:50;27.95;;;5.28;;
53293;SDS011;39181;53.440;5.644;2023-07-16T04:58:16;24.35;;;5.00;;
53293;SDS011;39181;53.440;5.644;2023-07-16T05:00:42;25.10;;;5.50;;
53293;SDS011;39181;53.440;5.644;2023-07-16T05:03:07;26.85;;;5.55;;
53293;SDS011;39181;53.440;5.644;2023-07-16T05:05:33;24.92;;;5.40;;
53293;SDS011;39181;53.440;5.644;2023-07-16T05:07:59;29.77;;;5.20;;
53293;SDS011;39181;53.440;5.644;2023-07-16T05:10:26;23.50;;;4.30;;
53293;SDS011;39181;53.440;5.644;2023-07-16T05:12:52;21.95;;;5.10;;
53293;SDS011;39181;53.440;5.644;2023-07-16T05:15:18;21.45;;;5.15;;
53293;SDS011;39181;53.440;5.644;2023-07-16T05:17:43;24.13;;;5.75;;
53293;SDS011;39181;53.440;5.644;2023-07-16T05:20:09;27.27;;;5.15;;
53293;SDS011;39181;53.440;5.644;2023-07-16T05:22:35;26.27;;;4.88;;
53293;SDS011;39181;53.440;5.644;2023-07-16T05:25:01;27.20;;;5.30;;
53293;SDS011;39181;53.440;5.644;2023-07-16T05:27:27;27.55;;;6.53;;
53293;SDS011;39181;53.440;5.644;2023-07-16T05:29:53;26.95;;;5.68;;
53293;SDS011;39181;53.440;5.644;2023-07-16T05:32:19;28.52;;;5.00;;
53293;SDS011;39181;53.440;5.644;2023-07-16T05:34:44;22.40;;;4.50;;
53293;SDS011;39181;53.440;5.644;2023-07-16T05:37:10;22.90;;;5.03;;
53293;SDS011;39181;53.440;5.644;2023-07-16T05:39:36;24.85;;;4.68;;
53293;SDS011;39181;53.440;5.644;2023-07-16T05:42:02;19.88;;;5.22;;
53293;SDS011;39181;53.440;5.644;2023-07-16T05:44:28;23.45;;;4.60;;
53293;SDS011;39181;53.440;5.644;2023-07-16T05:46:54;31.75;;;5.82;;
53293;SDS011;39181;53.440;5.644;2023-07-16T05:49:19;24.70;;;5.68;;
53293;SDS011;39181;53.440;5.644;2023-07-16T05:51:45;23.48;;;4.90;;
53293;SDS011;39181;53.440;5.644;2023-07-16T05:54:10;25.48;;;4.40;;
53293;SDS011;39181;53.440;5.644;2023-07-16T05:56:36;24.58;;;4.95;;
53293;SDS011;39181;53.440;5.644;2023-07-16T05:59:02;29.27;;;5.00;;
53293;SDS011;39181;53.440;5.644;2023-07-16T06:01:27;24.58;;;4.57;;
53293;SDS011;39181;53.440;5.644;2023-07-16T06:03:53;19.10;;;4.65;;
53293;SDS011;39181;53.440;5.644;2023-07-16T06:06:19;24.33;;;5.45;;
53293;SDS011;39181;53.440;5.644;2023-07-16T06:08:44;22.75;;;4.18;;
53293;SDS011;39181;53.440;5.644;2023-07-16T06:11:11;21.13;;;3.97;;
53293;SDS011;39181;53.440;5.644;2023-07-16T06:13:37;26.58;;;5.07;;
53293;SDS011;39181;53.440;5.644;2023-07-16T06:16:03;26.77;;;5.95;;
53293;SDS011;39181;53.440;5.644;2023-07-16T06:18:29;28.88;;;5.72;;
53293;SDS011;39181;53.440;5.644;2023-07-16T06:20:54;25.02;;;5.10;;
53293;SDS011;39181;53.440;5.644;2023-07-16T06:23:20;18.33;;;4.95;;
53293;SDS011;39181;53.440;5.644;2023-07-16T06:25:46;19.77;;;4.40;;
53293;SDS011;39181;53.440;5.644;2023-07-16T06:28:13;20.40;;;4.57;;
53293;SDS011;39181;53.440;5.644;2023-07-16T06:30:39;25.63;;;4.85;;
53293;SDS011;39181;53.440;5.644;2023-07-16T06:33:05;21.98;;;5.10;;
53293;SDS011;39181;53.440;5.644;2023-07-16T06:35:30;21.20;;;5.40;;
53293;SDS011;39181;53.440;5.644;2023-07-16T06:37:56;20.02;;;4.47;;
53293;SDS011;39181;53.440;5.644;2023-07-16T06:40:21;17.48;;;4.30;;
53293;SDS011;39181;53.440;5.644;2023-07-16T06:42:48;16.48;;;4.10;;
53293;SDS011;39181;53.440;5.644;2023-07-16T06:45:14;19.00;;;4.53;;
53293;SDS011;39181;53.440;5.644;2023-07-16T06:47:39;21.35;;;4.90;;
53293;SDS011;39181;53.440;5.644;2023-07-16T06:50:05;24.50;;;5.80;;
53293;SDS011;39181;53.440;5.644;2023-07-16T06:52:31;24.70;;;4.30;;
53293;SDS011;39181;53.440;5.644;2023-07-16T06:54:56;26.33;;;5.18;;
53293;SDS011;39181;53.440;5.644;2023-07-16T06:57:22;22.80;;;4.78;;
53293;SDS011;39181;53.440;5.644;2023-07-16T06:59:48;25.60;;;5.00;;
53293;SDS011;39181;53.440;5.644;2023-07-16T07:02:15;26.08;;;5.57;;
53293;SDS011;39181;53.440;5.644;2023-07-16T07:04:41;18.27;;;4.72;;
53293;SDS011;39181;53.440;5.644;2023-07-16T07:07:07;23.13;;;4.63;;
53293;SDS011;39181;53.440;5.644;2023-07-16T07:09:33;20.10;;;5.03;;
53293;SDS011;39181;53.440;5.644;2023-07-16T07:11:59;20.77;;;4.15;;
53293;SDS011;39181;53.440;5.644;2023-07-16T07:14:24;19.70;;;4.50;;
53293;SDS011;39181;53.440;5.644;2023-07-16T07:16:50;16.65;;;3.42;;
53293;SDS011;39181;53.440;5.644;2023-07-16T07:19:15;27.15;;;5.50;;
53293;SDS011;39181;53.440;5.644;2023-07-16T07:21:41;17.10;;;4.53;;
53293;SDS011;39181;53.440;5.644;2023-07-16T07:24:06;19.50;;;4.53;;
53293;SDS011;39181;53.440;5.644;2023-07-16T07:26:32;23.73;;;4.55;;
53293;SDS011;39181;53.440;5.644;2023-07-16T07:28:58;21.50;;;5.20;;
53293;SDS011;39181;53.440;5.644;2023-07-16T07:31:23;23.33;;;4.43;;
53293;SDS011;39181;53.440;5.644;2023-07-16T07:33:49;18.77;;;4.60;;
53293;SDS011;39181;53.440;5.644;2023-07-16T07:36:15;18.40;;;3.80;;
53293;SDS011;39181;53.440;5.644;2023-07-16T07:38:40;17.73;;;3.53;;
53293;SDS011;39181;53.440;5.644;2023-07-16T07:41:06;21.85;;;3.88;;
53293;SDS011;39181;53.440;5.644;2023-07-16T07:43:31;20.88;;;4.30;;
53293;SDS011;39181;53.440;5.644;2023-07-16T07:45:57;23.55;;;3.70;;
53293;SDS011;39181;53.440;5.644;2023-07-16T07:48:23;17.00;;;3.78;;
53293;SDS011;39181;53.440;5.644;2023-07-16T07:50:48;18.05;;;4.18;;
53293;SDS011;39181;53.440;5.644;2023-07-16T07:53:14;23.88;;;4.40;;
53293;SDS011;39181;53.440;5.644;2023-07-16T07:55:40;24.15;;;5.22;;
53293;SDS011;39181;53.440;5.644;2023-07-16T07:58:07;19.55;;;3.90;;
53293;SDS011;39181;53.440;5.644;2023-07-16T08:00:33;21.10;;;4.05;;
53293;SDS011;39181;53.440;5.644;2023-07-16T08:02:58;22.08;;;5.32;;
53293;SDS011;39181;53.440;5.644;2023-07-16T08:05:24;20.65;;;4.28;;
53293;SDS011;39181;53.440;5.644;2023-07-16T08:07:50;25.30;;;5.22;;
53293;SDS011;39181;53.440;5.644;2023-07-16T08:10:17;21.00;;;4.30;;
53293;SDS011;39181;53.440;5.644;2023-07-16T08:12:43;24.05;;;5.70;;
53293;SDS011;39181;53.440;5.644;2023-07-16T08:15:08;30.40;;;6.53;;
53293;SDS011;39181;53.440;5.644;2023-07-16T08:17:43;19.70;;;4.77;;
53293;SDS011;39181;53.440;5.644;2023-07-16T08:20:10;21.65;;;5.60;;
53293;SDS011;39181;53.440;5.644;2023-07-16T08:22:36;22.15;;;4.32;;
53293;SDS011;39181;53.440;5.644;2023-07-16T08:25:03;24.50;;;4.97;;
53293;SDS011;39181;53.440;5.644;2023-07-16T08:27:29;24.17;;;4.95;;
53293;SDS011;39181;53.440;5.644;2023-07-16T08:29:57;20.98;;;4.15;;
53293;SDS011;39181;53.440;5.644;2023-07-16T08:32:23;19.15;;;4.85;;
53293;SDS011;39181;53.440;5.644;2023-07-16T08:34:49;20.42;;;4.60;;
53293;SDS011;39181;53.440;5.644;2023-07-16T08:37:14;18.75;;;4.47;;
53293;SDS011;39181;53.440;5.644;2023-07-16T08:39:40;29.48;;;4.72;;
53293;SDS011;39181;53.440;5.644;2023-07-16T08:42:06;21.80;;;4.85;;
53293;SDS011;39181;53.440;5.644;2023-07-16T08:44:38;24.67;;;4.50;;
53293;SDS011;39181;53.440;5.644;2023-07-16T08:47:05;22.90;;;5.10;;
53293;SDS011;39181;53.440;5.644;2023-07-16T08:49:31;21.80;;;4.50;;
53293;SDS011;39181;53.440;5.644;2023-07-16T08:51:59;22.73;;;4.78;;
53293;SDS011;39181;53.440;5.644;2023-07-16T08:54:29;21.15;;;4.25;;
53293;SDS011;39181;53.440;5.644;2023-07-16T08:56:55;27.92;;;5.10;;
53293;SDS011;39181;53.440;5.644;2023-07-16T08:59:22;24.55;;;4.75;;
53293;SDS011;39181;53.440;5.644;2023-07-16T09:01:47;22.40;;;4.80;;
53293;SDS011;39181;53.440;5.644;2023-07-16T09:04:14;23.92;;;4.20;;
53293;SDS011;39181;53.440;5.644;2023-07-16T09:06:40;22.17;;;4.55;;
53293;SDS011;39181;53.440;5.644;2023-07-16T09:09:07;20.92;;;5.00;;
53293;SDS011;39181;53.440;5.644;2023-07-16T09:11:33;23.85;;;5.30;;
53293;SDS011;39181;53.440;5.644;2023-07-16T09:14:01;25.63;;;4.43;;
53293;SDS011;39181;53.440;5.644;2023-07-16T09:16:31;29.60;;;4.72;;
53293;SDS011;39181;53.440;5.644;2023-07-16T09:19:05;19.85;;;4.70;;
53293;SDS011;39181;53.440;5.644;2023-07-16T09:21:32;18.38;;;3.55;;
53293;SDS011;39181;53.440;5.644;2023-07-16T09:23:59;20.75;;;3.90;;
53293;SDS011;39181;53.440;5.644;2023-07-16T09:26:25;25.95;;;4.65;;
53293;SDS011;39181;53.440;5.644;2023-07-16T09:28:51;20.38;;;4.80;;
53293;SDS011;39181;53.440;5.644;2023-07-16T09:31:16;24.95;;;4.53;;
53293;SDS011;39181;53.440;5.644;2023-07-16T09:33:42;20.25;;;4.35;;
53293;SDS011;39181;53.440;5.644;2023-07-16T09:36:12;20.65;;;4.78;;
53293;SDS011;39181;53.440;5.644;2023-07-16T09:38:37;21.95;;;4.53;;
53293;SDS011;39181;53.440;5.644;2023-07-16T09:41:03;31.65;;;4.80;;
53293;SDS011;39181;53.440;5.644;2023-07-16T09:43:31;26.02;;;5.05;;
53293;SDS011;39181;53.440;5.644;2023-07-16T09:45:58;23.90;;;4.60;;
53293;SDS011;39181;53.440;5.644;2023-07-16T09:48:24;21.83;;;4.57;;
53293;SDS011;39181;53.440;5.644;2023-07-16T09:50:50;25.45;;;5.03;;
53293;SDS011;39181;53.440;5.644;2023-07-16T09:53:18;22.10;;;4.35;;
53293;SDS011;39181;53.440;5.644;2023-07-16T09:55:45;22.83;;;4.60;;
53293;SDS011;39181;53.440;5.644;2023-07-16T09:58:12;24.63;;;4.00;;
53293;SDS011;39181;53.440;5.644;2023-07-16T10:00:39;22.27;;;4.32;;
53293;SDS011;39181;53.440;5.644;2023-07-16T10:03:07;19.58;;;4.13;;
53293;SDS011;39181;53.440;5.644;2023-07-16T10:05:35;22.55;;;4.60;;
53293;SDS011;39181;53.440;5.644;2023-07-16T10:08:02;20.17;;;3.47;;
53293;SDS011;39181;53.440;5.644;2023-07-16T10:13:08;15.55;;;3.30;;
53293;SDS011;39181;53.440;5.644;2023-07-16T10:15:36;15.18;;;3.17;;
53293;SDS011;39181;53.440;5.644;2023-07-16T10:18:01;14.43;;;3.25;;
53293;SDS011;39181;53.440;5.644;2023-07-16T10:20:31;22.45;;;3.97;;
53293;SDS011;39181;53.440;5.644;2023-07-16T10:23:13;18.50;;;3.65;;
53293;SDS011;39181;53.440;5.644;2023-07-16T10:25:41;17.33;;;3.85;;
53293;SDS011;39181;53.440;5.644;2023-07-16T10:28:25;23.35;;;4.03;;
53293;SDS011;39181;53.440;5.644;2023-07-16T10:30:51;19.83;;;3.42;;
53293;SDS011;39181;53.440;5.644;2023-07-16T10:33:17;18.13;;;3.30;;
53293;SDS011;39181;53.440;5.644;2023-07-16T10:35:44;24.33;;;4.88;;
53293;SDS011;39181;53.440;5.644;2023-07-16T10:38:10;15.05;;;3.33;;
53293;SDS011;39181;53.440;5.644;2023-07-16T10:40:40;22.02;;;3.60;;
53293;SDS011;39181;53.440;5.644;2023-07-16T10:43:06;19.17;;;3.92;;
53293;SDS011;39181;53.440;5.644;2023-07-16T10:45:32;19.40;;;3.97;;
53293;SDS011;39181;53.440;5.644;2023-07-16T10:47:58;16.33;;;3.33;;
53293;SDS011;39181;53.440;5.644;2023-07-16T10:50:24;21.67;;;3.72;;
53293;SDS011;39181;53.440;5.644;2023-07-16T10:52:53;23.35;;;3.80;;
53293;SDS011;39181;53.440;5.644;2023-07-16T10:55:20;16.02;;;3.47;;
53293;SDS011;39181;53.440;5.644;2023-07-16T10:57:47;17.02;;;3.35;;
53293;SDS011;39181;53.440;5.644;2023-07-16T11:00:14;18.92;;;3.33;;
53293;SDS011;39181;53.440;5.644;2023-07-16T11:02:40;19.73;;;3.45;;
53293;SDS011;39181;53.440;5.644;2023-07-16T11:05:11;21.17;;;3.55;;
53293;SDS011;39181;53.440;5.644;2023-07-16T11:07:46;25.10;;;3.70;;
53293;SDS011;39181;53.440;5.644;2023-07-16T11:10:16;26.67;;;3.95;;
53293;SDS011;39181;53.440;5.644;2023-07-16T11:12:42;21.88;;;3.67;;
53293;SDS011;39181;53.440;5.644;2023-07-16T11:15:09;19.80;;;3.75;;
53293;SDS011;39181;53.440;5.644;2023-07-16T11:17:37;18.02;;;3.38;;
53293;SDS011;39181;53.440;5.644;2023-07-16T11:20:03;16.90;;;3.78;;
53293;SDS011;39181;53.440;5.644;2023-07-16T11:22:31;23.00;;;3.60;;
53293;SDS011;39181;53.440;5.644;2023-07-16T11:24:57;18.65;;;3.85;;
53293;SDS011;39181;53.440;5.644;2023-07-16T11:27:24;23.25;;;3.85;;
53293;SDS011;39181;53.440;5.644;2023-07-16T11:29:56;17.77;;;3.00;;
53293;SDS011;39181;53.440;5.644;2023-07-16T11:34:59;20.42;;;3.92;;
53293;SDS011;39181;53.440;5.644;2023-07-16T11:37:30;26.73;;;4.60;;
53293;SDS011;39181;53.440;5.644;2023-07-16T11:39:57;15.52;;;3.33;;
53293;SDS011;39181;53.440;5.644;2023-07-16T11:42:38;17.75;;;3.10;;
53293;SDS011;39181;53.440;5.644;2023-07-16T11:45:05;17.17;;;3.25;;
53293;SDS011;39181;53.440;5.644;2023-07-16T11:47:40;14.50;;;3.00;;
53293;SDS011;39181;53.440;5.644;2023-07-16T11:50:06;13.35;;;2.83;;
53293;SDS011;39181;53.440;5.644;2023-07-16T11:52:32;19.08;;;4.07;;
53293;SDS011;39181;53.440;5.644;2023-07-16T11:54:58;16.77;;;3.33;;
53293;SDS011;39181;53.440;5.644;2023-07-16T11:57:28;22.08;;;3.50;;
53293;SDS011;39181;53.440;5.644;2023-07-16T11:59:54;14.45;;;3.10;;
53293;SDS011;39181;53.440;5.644;2023-07-16T12:02:19;17.63;;;3.83;;
53293;SDS011;39181;53.440;5.644;2023-07-16T12:04:46;19.77;;;4.07;;
53293;SDS011;39181;53.440;5.644;2023-07-16T12:07:11;14.45;;;3.58;;
53293;SDS011;39181;53.440;5.644;2023-07-16T12:09:37;17.75;;;3.35;;
53293;SDS011;39181;53.440;5.644;2023-07-16T12:12:03;19.52;;;3.33;;
53293;SDS011;39181;53.440;5.644;2023-07-16T12:14:29;25.10;;;3.83;;
53293;SDS011;39181;53.440;5.644;2023-07-16T12:16:55;14.50;;;3.28;;
53293;SDS011;39181;53.440;5.644;2023-07-16T12:19:21;18.17;;;2.75;;
53293;SDS011;39181;53.440;5.644;2023-07-16T12:21:47;20.88;;;3.33;;
53293;SDS011;39181;53.440;5.644;2023-07-16T12:24:12;22.02;;;3.83;;
53293;SDS011;39181;53.440;5.644;2023-07-16T12:26:38;16.38;;;3.05;;
53293;SDS011;39181;53.440;5.644;2023-07-16T12:29:03;16.98;;;3.33;;
53293;SDS011;39181;53.440;5.644;2023-07-16T12:31:30;16.25;;;3.08;;
53293;SDS011;39181;53.440;5.644;2023-07-16T12:33:59;14.18;;;3.13;;
53293;SDS011;39181;53.440;5.644;2023-07-16T12:36:27;17.08;;;3.70;;
53293;SDS011;39181;53.440;5.644;2023-07-16T12:38:53;17.92;;;2.70;;
53293;SDS011;39181;53.440;5.644;2023-07-16T12:41:18;11.80;;;2.53;;
53293;SDS011;39181;53.440;5.644;2023-07-16T12:43:44;17.80;;;3.10;;
53293;SDS011;39181;53.440;5.644;2023-07-16T12:46:10;18.55;;;3.28;;
53293;SDS011;39181;53.440;5.644;2023-07-16T12:48:36;20.00;;;3.08;;
53293;SDS011;39181;53.440;5.644;2023-07-16T12:51:01;16.65;;;3.08;;
53293;SDS011;39181;53.440;5.644;2023-07-16T12:53:27;18.45;;;2.92;;
53293;SDS011;39181;53.440;5.644;2023-07-16T12:55:53;20.13;;;3.75;;
53293;SDS011;39181;53.440;5.644;2023-07-16T12:58:19;20.42;;;3.72;;
53293;SDS011;39181;53.440;5.644;2023-07-16T13:00:44;16.67;;;3.00;;
53293;SDS011;39181;53.440;5.644;2023-07-16T13:03:10;16.38;;;2.65;;
53293;SDS011;39181;53.440;5.644;2023-07-16T13:05:37;10.95;;;2.75;;
53293;SDS011;39181;53.440;5.644;2023-07-16T13:08:03;13.90;;;2.63;;
53293;SDS011;39181;53.440;5.644;2023-07-16T13:10:29;13.40;;;2.45;;
53293;SDS011;39181;53.440;5.644;2023-07-16T13:12:55;17.52;;;2.80;;
53293;SDS011;39181;53.440;5.644;2023-07-16T13:15:20;13.80;;;2.65;;
53293;SDS011;39181;53.440;5.644;2023-07-16T13:17:46;14.85;;;2.67;;
53293;SDS011;39181;53.440;5.644;2023-07-16T13:20:12;14.70;;;2.50;;
53293;SDS011;39181;53.440;5.644;2023-07-16T13:22:38;12.52;;;3.08;;
53293;SDS011;39181;53.440;5.644;2023-07-16T13:25:04;14.88;;;2.47;;
53293;SDS011;39181;53.440;5.644;2023-07-16T13:27:30;20.88;;;3.05;;
53293;SDS011;39181;53.440;5.644;2023-07-16T13:29:55;13.07;;;2.90;;
53293;SDS011;39181;53.440;5.644;2023-07-16T13:32:21;17.17;;;3.30;;
53293;SDS011;39181;53.440;5.644;2023-07-16T13:34:46;16.17;;;2.90;;
53293;SDS011;39181;53.440;5.644;2023-07-16T13:37:12;21.35;;;3.20;;
53293;SDS011;39181;53.440;5.644;2023-07-16T13:39:39;12.38;;;2.70;;
53293;SDS011;39181;53.440;5.644;2023-07-16T13:42:04;26.40;;;3.30;;
53293;SDS011;39181;53.440;5.644;2023-07-16T13:44:31;15.68;;;3.40;;
53293;SDS011;39181;53.440;5.644;2023-07-16T13:46:57;17.88;;;3.40;;
53293;SDS011;39181;53.440;5.644;2023-07-16T13:49:23;17.35;;;4.53;;
53293;SDS011;39181;53.440;5.644;2023-07-16T13:51:48;12.32;;;2.75;;
53293;SDS011;39181;53.440;5.644;2023-07-16T13:54:14;22.27;;;3.75;;
53293;SDS011;39181;53.440;5.644;2023-07-16T13:56:40;13.30;;;3.20;;
53293;SDS011;39181;53.440;5.644;2023-07-16T13:59:05;19.27;;;3.10;;
53293;SDS011;39181;53.440;5.644;2023-07-16T14:01:31;14.70;;;3.35;;
53293;SDS011;39181;53.440;5.644;2023-07-16T14:03:57;16.00;;;2.50;;
53293;SDS011;39181;53.440;5.644;2023-07-16T14:06:22;17.08;;;3.45;;
53293;SDS011;39181;53.440;5.644;2023-07-16T14:08:48;20.55;;;3.20;;
53293;SDS011;39181;53.440;5.644;2023-07-16T14:11:13;19.33;;;3.10;;
53293;SDS011;39181;53.440;5.644;2023-07-16T14:13:41;19.30;;;3.15;;
53293;SDS011;39181;53.440;5.644;2023-07-16T14:16:06;16.35;;;2.83;;
53293;SDS011;39181;53.440;5.644;2023-07-16T14:18:32;15.48;;;3.03;;
53293;SDS011;39181;53.440;5.644;2023-07-16T14:20:57;17.55;;;3.50;;
53293;SDS011;39181;53.440;5.644;2023-07-16T14:23:23;20.02;;;3.45;;
53293;SDS011;39181;53.440;5.644;2023-07-16T14:25:49;24.75;;;4.07;;
53293;SDS011;39181;53.440;5.644;2023-07-16T14:28:14;20.25;;;3.80;;
53293;SDS011;39181;53.440;5.644;2023-07-16T14:30:40;17.75;;;3.22;;
53293;SDS011;39181;53.440;5.644;2023-07-16T14:33:05;13.82;;;3.03;;
53293;SDS011;39181;53.440;5.644;2023-07-16T14:35:33;21.17;;;4.10;;
53293;SDS011;39181;53.440;5.644;2023-07-16T14:37:59;18.25;;;3.45;;
53293;SDS011;39181;53.440;5.644;2023-07-16T14:40:24;17.05;;;3.42;;